createdAt,value
2018-01-15T00:00:20.853Z,6.28
2018-01-15T00:01:01.424Z,6.4
2018-01-15T00:01:41.916Z,6.44
2018-01-15T00:02:22.516Z,6.37
2018-01-15T00:03:03.002Z,6.37
2018-01-15T00:03:43.564Z,6.37
2018-01-15T00:04:24.113Z,6.38
2018-01-15T00:05:04.706Z,6.27
2018-01-15T00:05:45.207Z,6.28
2018-01-15T00:06:25.729Z,6.3
2018-01-15T00:07:06.271Z,6.31
2018-01-15T00:07:46.799Z,6.22
2018-01-15T00:08:27.385Z,6.22
2018-01-15T00:09:07.875Z,6.19
2018-01-15T00:09:48.391Z,6.25
2018-01-15T00:10:28.959Z,6.21
2018-01-15T00:11:09.479Z,6.19
2018-01-15T00:11:50.058Z,6.21
2018-01-15T00:12:30.569Z,6.27
2018-01-15T00:13:11.064Z,6.22
2018-01-15T00:13:51.612Z,6.3
2018-01-15T00:14:32.228Z,6.33
2018-01-15T00:15:12.776Z,6.3
2018-01-15T00:15:53.273Z,6.31
2018-01-15T00:16:33.824Z,6.25
2018-01-15T00:17:14.406Z,6.25
2018-01-15T00:17:54.960Z,6.22
2018-01-15T00:18:35.540Z,6.21
2018-01-15T00:19:16.118Z,6.28
2018-01-15T00:19:56.646Z,6.27
2018-01-15T00:20:37.177Z,6.27
2018-01-15T00:21:17.758Z,6.27
2018-01-15T00:21:58.255Z,6.11
2018-01-15T00:22:38.759Z,6.17
2018-01-15T00:23:19.309Z,6.15
2018-01-15T00:23:59.902Z,6.27
2018-01-15T00:24:40.474Z,6.27
2018-01-15T00:25:20.978Z,6.19
2018-01-15T00:26:01.520Z,6.11
2018-01-15T00:26:42.065Z,6.27
2018-01-15T00:27:22.597Z,6.33
2018-01-15T00:28:03.178Z,6.34
2018-01-15T00:28:43.674Z,6.27
2018-01-15T00:29:24.259Z,6.28
2018-01-15T00:30:04.799Z,6.33
2018-01-15T00:30:45.368Z,6.25
2018-01-15T00:31:25.943Z,6.22
2018-01-15T00:32:06.463Z,6.27
2018-01-15T00:32:46.988Z,6.22
2018-01-15T00:33:27.552Z,6.22
2018-01-15T00:34:08.113Z,6.33
2018-01-15T00:34:48.661Z,6.22
2018-01-15T00:35:29.181Z,6.31
2018-01-15T00:36:09.688Z,6.25
2018-01-15T00:36:50.304Z,6.3
2018-01-15T00:37:30.848Z,6.25
2018-01-15T00:38:11.364Z,6.36
2018-01-15T00:38:51.894Z,6.3
2018-01-15T00:39:32.457Z,6.21
2018-01-15T00:40:12.969Z,6.28
2018-01-15T00:40:53.494Z,6.34
2018-01-15T00:41:34.043Z,6.28
2018-01-15T00:42:14.597Z,6.18
2018-01-15T00:42:55.144Z,6.28
2018-01-15T00:43:35.649Z,6.18
2018-01-15T00:44:16.143Z,6.14
2018-01-15T00:44:56.672Z,6.09
2018-01-15T00:45:37.344Z,6.12
2018-01-15T00:46:17.852Z,5.94
2018-01-15T00:46:58.353Z,5.89
2018-01-15T00:47:39.131Z,6
2018-01-15T00:48:19.671Z,5.89
2018-01-15T00:49:00.197Z,5.97
2018-01-15T00:49:40.756Z,5.9
2018-01-15T00:50:21.327Z,5.9
2018-01-15T00:51:01.855Z,5.83
2018-01-15T00:51:42.399Z,5.74
2018-01-15T00:52:22.928Z,5.79
2018-01-15T00:53:03.462Z,5.75
2018-01-15T00:53:44.358Z,5.91
2018-01-15T00:54:25.118Z,5.81
2018-01-15T00:55:05.643Z,5.83
2018-01-15T00:55:46.176Z,5.65
2018-01-15T00:56:26.706Z,5.74
2018-01-15T00:57:07.245Z,5.67
2018-01-15T00:57:47.752Z,5.72
2018-01-15T00:58:28.246Z,5.86
2018-01-15T00:59:09.155Z,5.86
2018-01-15T00:59:50.445Z,5.82
2018-01-15T01:00:30.964Z,5.9
2018-01-15T01:01:11.502Z,5.82
2018-01-15T01:01:52.080Z,5.83
2018-01-15T01:02:32.585Z,5.94
2018-01-15T01:03:13.097Z,5.99
2018-01-15T01:03:53.637Z,5.97
2018-01-15T01:04:35.071Z,5.79
2018-01-15T01:05:15.665Z,5.82
2018-01-15T01:05:56.852Z,5.89
2018-01-15T01:06:37.398Z,5.86
2018-01-15T01:07:17.921Z,5.85
2018-01-15T01:07:58.448Z,5.83
2018-01-15T01:08:39.575Z,5.86
2018-01-15T01:09:20.017Z,5.85
2018-01-15T01:10:00.875Z,5.68
2018-01-15T01:10:41.224Z,5.83
2018-01-15T01:11:21.756Z,5.78
2018-01-15T01:12:02.254Z,5.64
2018-01-15T01:12:42.773Z,5.61
2018-01-15T01:13:23.292Z,5.67
2018-01-15T01:14:05.006Z,5.74
2018-01-15T01:14:45.602Z,5.63
2018-01-15T01:15:26.157Z,5.72
2018-01-15T01:16:06.648Z,5.83
2018-01-15T01:16:47.189Z,5.83
2018-01-15T01:17:27.685Z,5.86
2018-01-15T01:18:08.217Z,5.78
2018-01-15T01:18:49.165Z,5.72
2018-01-15T01:19:29.738Z,5.67
2018-01-15T01:20:10.323Z,5.74
2018-01-15T01:20:50.829Z,5.65
2018-01-15T01:21:31.441Z,5.67
2018-01-15T01:22:11.928Z,5.53
2018-01-15T01:22:52.525Z,5.56
2018-01-15T01:23:33.009Z,5.51
2018-01-15T01:24:13.525Z,5.48
2018-01-15T01:24:54.532Z,5.49
2018-01-15T01:25:35.204Z,5.54
2018-01-15T01:26:15.808Z,5.49
2018-01-15T01:26:56.331Z,5.49
2018-01-15T01:27:36.903Z,5.48
2018-01-15T01:28:17.399Z,5.49
2018-01-15T01:28:57.920Z,5.42
2018-01-15T01:29:38.483Z,5.31
2018-01-15T01:30:19.017Z,5.43
2018-01-15T01:30:59.554Z,5.4
2018-01-15T01:31:40.085Z,5.45
2018-01-15T01:32:20.544Z,5.38
2018-01-15T01:33:01.107Z,5.4
2018-01-15T01:33:41.625Z,5.45
2018-01-15T01:34:22.212Z,5.45
2018-01-15T01:35:02.745Z,5.4
2018-01-15T01:35:43.300Z,5.54
2018-01-15T01:36:23.844Z,5.57
2018-01-15T01:37:04.373Z,5.48
2018-01-15T01:37:44.880Z,5.48
2018-01-15T01:38:25.427Z,5.48
2018-01-15T01:39:05.936Z,5.65
2018-01-15T01:39:46.487Z,5.65
2018-01-15T01:40:26.989Z,5.65
2018-01-15T01:41:07.514Z,5.68
2018-01-15T01:41:48.032Z,5.63
2018-01-15T01:42:28.600Z,5.54
2018-01-15T01:43:09.079Z,5.72
2018-01-15T01:43:49.745Z,5.67
2018-01-15T01:44:30.247Z,5.78
2018-01-15T01:45:10.800Z,5.67
2018-01-15T01:45:51.336Z,5.39
2018-01-15T01:46:31.833Z,5.3
2018-01-15T01:47:12.690Z,5.27
2018-01-15T01:47:53.846Z,5.33
2018-01-15T01:48:34.380Z,5.39
2018-01-15T01:49:14.935Z,5.45
2018-01-15T01:49:55.464Z,5.49
2018-01-15T01:50:36.013Z,5.48
2018-01-15T01:51:16.593Z,5.43
2018-01-15T01:51:57.067Z,5.48
2018-01-15T01:52:37.606Z,5.46
2018-01-15T01:53:18.169Z,5.56
2018-01-15T01:53:58.694Z,5.61
2018-01-15T01:54:39.283Z,5.51
2018-01-15T01:55:19.723Z,5.39
2018-01-15T01:56:00.307Z,5.53
2018-01-15T01:56:40.806Z,5.46
2018-01-15T01:57:21.358Z,5.36
2018-01-15T01:58:03.801Z,5.4
2018-01-15T01:58:45.283Z,5.31
2018-01-15T01:59:25.814Z,5.35
2018-01-15T02:00:06.373Z,5.3
2018-01-15T02:00:46.908Z,5.43
2018-01-15T02:01:27.768Z,5.4
2018-01-15T02:02:08.633Z,5.4
2018-01-15T02:02:49.332Z,5.24
2018-01-15T02:03:29.723Z,5.35
2018-01-15T02:04:10.255Z,5.38
2018-01-15T02:04:50.774Z,5.51
2018-01-15T02:05:31.320Z,5.46
2018-01-15T02:06:11.877Z,5.42
2018-01-15T02:06:52.815Z,5.38
2018-01-15T02:07:33.602Z,5.39
2018-01-15T02:08:14.553Z,5.21
2018-01-15T02:08:55.120Z,5.24
2018-01-15T02:09:35.768Z,5.21
2018-01-15T02:10:16.331Z,5.3
2018-01-15T02:10:56.875Z,5.36
2018-01-15T02:11:37.874Z,5.43
2018-01-15T02:12:18.490Z,5.38
2018-01-15T02:12:59.228Z,5.38
2018-01-15T02:13:39.804Z,5.39
2018-01-15T02:14:20.328Z,5.31
2018-01-15T02:15:00.848Z,5.4
2018-01-15T02:15:41.384Z,5.42
2018-01-15T02:16:21.974Z,5.35
2018-01-15T02:17:02.793Z,5.38
2018-01-15T02:17:44.234Z,5.27
2018-01-15T02:18:24.877Z,5.24
2018-01-15T02:19:05.351Z,5.3
2018-01-15T02:19:45.875Z,5.3
2018-01-15T02:20:26.425Z,5.22
2018-01-15T02:21:06.984Z,5.3
2018-01-15T02:21:47.737Z,5.27
2018-01-15T02:22:29.040Z,5.33
2018-01-15T02:23:08.962Z,5.2
2018-01-15T02:23:49.529Z,5.33
2018-01-15T02:24:30.041Z,5.33
2018-01-15T02:25:10.566Z,5.28
2018-01-15T02:25:51.096Z,5.3
2018-01-15T02:26:31.645Z,5.31
2018-01-15T02:27:12.129Z,5.27
2018-01-15T02:27:54.064Z,5.27
2018-01-15T02:28:34.564Z,5.35
2018-01-15T02:29:15.137Z,5.24
2018-01-15T02:29:55.642Z,5.22
2018-01-15T02:30:36.164Z,5.25
2018-01-15T02:31:16.665Z,5.2
2018-01-15T02:31:58.075Z,5.38
2018-01-15T02:32:38.788Z,5.35
2018-01-15T02:33:19.579Z,5.43
2018-01-15T02:34:00.093Z,5.49
2018-01-15T02:34:40.614Z,5.54
2018-01-15T02:35:21.125Z,5.45
2018-01-15T02:36:01.636Z,5.51
2018-01-15T02:36:42.190Z,5.48
2018-01-15T02:37:23.272Z,5.57
2018-01-15T02:38:04.153Z,5.72
2018-01-15T02:38:44.858Z,5.72
2018-01-15T02:39:25.408Z,5.83
2018-01-15T02:40:05.941Z,5.86
2018-01-15T02:40:46.503Z,5.99
2018-01-15T02:41:27.067Z,5.9
2018-01-15T02:42:08.462Z,5.99
2018-01-15T02:42:48.370Z,6.04
2018-01-15T02:44:47.018Z,6.12
2018-01-15T02:45:29.403Z,6.12
2018-01-15T02:46:09.938Z,6.15
2018-01-15T02:46:50.491Z,6.19
2018-01-15T02:47:31.002Z,6.18
2018-01-15T02:48:11.535Z,6.22
2018-01-15T02:48:52.069Z,6.11
2018-01-15T02:49:32.614Z,6.15
2018-01-15T02:50:13.164Z,6.14
2018-01-15T02:50:53.878Z,6.22
2018-01-15T02:51:37.197Z,6.27
2018-01-15T02:52:17.184Z,6.34
2018-01-15T02:52:57.686Z,6.27
2018-01-15T02:53:38.200Z,6.22
2018-01-15T02:54:19.008Z,6.15
2018-01-15T02:55:00.709Z,6.22
2018-01-15T02:55:41.304Z,6.06
2018-01-15T02:56:21.795Z,6.17
2018-01-15T02:57:02.366Z,6.03
2018-01-15T02:57:42.917Z,6.04
2018-01-15T02:58:23.401Z,6.06
2018-01-15T02:59:04.821Z,6.03
2018-01-15T02:59:45.661Z,6.17
2018-01-15T03:00:26.567Z,6.11
2018-01-15T03:01:06.884Z,5.97
2018-01-15T03:01:47.426Z,6.06
2018-01-15T03:02:27.999Z,6.18
2018-01-15T03:03:08.500Z,6.17
2018-01-15T03:03:49.052Z,6.17
2018-01-15T03:04:29.615Z,6.31
2018-01-15T03:05:10.120Z,6.33
2018-01-15T03:05:50.670Z,6.25
2018-01-15T03:06:31.519Z,6.27
2018-01-15T03:07:12.314Z,6.21
2018-01-15T03:07:53.969Z,6.28
2018-01-15T03:08:34.583Z,6.27
2018-01-15T03:09:15.170Z,6.34
2018-01-15T03:09:55.949Z,6.37
2018-01-15T03:10:36.436Z,6.31
2018-01-15T03:11:16.954Z,6.14
2018-01-15T03:11:57.538Z,6.37
2018-01-15T03:12:38.388Z,6.3
2018-01-15T03:13:19.713Z,6.22
2018-01-15T03:13:59.869Z,6.19
2018-01-15T03:14:40.319Z,6
2018-01-15T03:15:20.811Z,6.08
2018-01-15T03:16:01.360Z,6
2018-01-15T03:16:42.311Z,6.03
2018-01-15T03:17:22.554Z,6.09
2018-01-15T03:18:03.296Z,6.04
2018-01-15T03:18:44.264Z,6.11
2018-01-15T03:19:24.807Z,6.19
2018-01-15T03:20:05.319Z,6.18
2018-01-15T03:20:45.827Z,6.12
2018-01-15T03:21:26.399Z,6.22
2018-01-15T03:22:06.922Z,6.33
2018-01-15T03:22:47.466Z,6.4
2018-01-15T03:23:29.046Z,6.31
2018-01-15T03:24:09.526Z,6.37
2018-01-15T03:24:50.796Z,6.28
2018-01-15T03:25:30.638Z,6.33
2018-01-15T03:26:11.287Z,6.22
2018-01-15T03:26:51.849Z,6.15
2018-01-15T03:27:32.428Z,6.31
2018-01-15T03:28:13.197Z,6.37
2018-01-15T03:28:54.150Z,6.3
2018-01-15T03:29:34.697Z,6.33
2018-01-15T03:30:15.213Z,6.46
2018-01-15T03:30:55.734Z,6.51
2018-01-15T03:31:36.301Z,6.41
2018-01-15T03:32:16.965Z,6.46
2018-01-15T03:32:57.609Z,6.41
2018-01-15T03:33:38.516Z,6.46
2018-01-15T03:34:19.612Z,6.56
2018-01-15T03:34:59.954Z,6.58
2018-01-15T03:35:41.215Z,6.48
2018-01-15T03:36:21.412Z,6.52
2018-01-15T03:37:01.998Z,6.48
2018-01-15T03:37:42.485Z,6.46
2018-01-15T03:38:23.048Z,6.44
2018-01-15T03:39:03.823Z,6.3
2018-01-15T03:39:45.417Z,6.38
2018-01-15T03:40:25.966Z,6.4
2018-01-15T03:41:06.471Z,6.46
2018-01-15T03:41:47.177Z,6.37
2018-01-15T03:42:27.884Z,6.25
2018-01-15T03:43:09.023Z,6.48
2018-01-15T03:43:49.394Z,6.43
2018-01-15T03:44:29.946Z,6.43
2018-01-15T03:45:10.479Z,6.43
2018-01-15T03:45:51.072Z,6.49
2018-01-15T03:46:31.581Z,6.48
2018-01-15T03:47:12.079Z,6.38
2018-01-15T03:47:52.594Z,6.38
2018-01-15T03:48:33.583Z,6.36
2018-01-15T03:49:14.172Z,6.54
2018-01-15T03:49:54.710Z,6.61
2018-01-15T03:50:35.205Z,6.59
2018-01-15T03:51:15.719Z,6.56
2018-01-15T03:51:56.264Z,6.62
2018-01-15T03:52:36.797Z,6.56
2018-01-15T03:53:17.341Z,6.43
2018-01-15T03:53:57.884Z,6.52
2018-01-15T03:54:38.407Z,6.66
2018-01-15T03:55:18.918Z,6.61
2018-01-15T03:55:59.447Z,6.49
2018-01-15T03:56:39.919Z,6.46
2018-01-15T03:57:20.497Z,6.41
2018-01-15T03:58:01.025Z,6.51
2018-01-15T03:58:41.599Z,6.52
2018-01-15T03:59:22.090Z,6.67
2018-01-15T04:00:02.642Z,6.56
2018-01-15T04:00:43.196Z,6.46
2018-01-15T04:01:23.654Z,6.55
2018-01-15T04:02:04.195Z,6.58
2018-01-15T04:02:44.700Z,6.51
2018-01-15T04:03:25.236Z,6.51
2018-01-15T04:04:05.783Z,6.46
2018-01-15T04:04:46.287Z,6.41
2018-01-15T04:05:26.835Z,6.48
2018-01-15T04:06:07.370Z,6.33
2018-01-15T04:06:47.887Z,6.41
2018-01-15T04:07:28.408Z,6.44
2018-01-15T04:08:08.950Z,6.36
2018-01-15T04:08:49.506Z,6.44
2018-01-15T04:09:30.042Z,6.43
2018-01-15T04:10:10.560Z,6.54
2018-01-15T04:10:51.103Z,6.41
2018-01-15T04:11:31.651Z,6.49
2018-01-15T04:12:12.191Z,6.54
2018-01-15T04:12:52.714Z,6.44
2018-01-15T04:13:33.263Z,6.37
2018-01-15T04:14:13.760Z,6.46
2018-01-15T04:14:54.307Z,6.4
2018-01-15T04:15:34.855Z,6.4
2018-01-15T04:16:15.421Z,6.44
2018-01-15T04:16:55.906Z,6.44
2018-01-15T04:17:36.478Z,6.46
2018-01-15T04:18:17.045Z,6.44
2018-01-15T04:18:57.510Z,6.51
2018-01-15T04:19:38.079Z,6.49
2018-01-15T04:20:18.570Z,6.43
2018-01-15T04:20:59.067Z,6.58
2018-01-15T04:21:39.591Z,6.58
2018-01-15T04:22:20.151Z,6.64
2018-01-15T04:23:00.671Z,6.62
2018-01-15T04:23:41.194Z,6.67
2018-01-15T04:24:21.747Z,6.62
2018-01-15T04:25:02.280Z,6.56
2018-01-15T04:25:42.855Z,6.59
2018-01-15T04:26:23.363Z,6.67
2018-01-15T04:27:03.883Z,6.7
2018-01-15T04:27:44.420Z,6.73
2018-01-15T04:28:24.951Z,6.64
2018-01-15T04:29:05.452Z,6.64
2018-01-15T04:29:45.994Z,6.58
2018-01-15T04:30:26.543Z,6.66
2018-01-15T04:31:07.050Z,6.64
2018-01-15T04:31:47.598Z,6.64
2018-01-15T04:32:28.130Z,6.66
2018-01-15T04:33:08.677Z,6.58
2018-01-15T04:33:49.238Z,6.46
2018-01-15T04:34:29.724Z,6.4
2018-01-15T04:35:10.259Z,6.4
2018-01-15T04:35:50.796Z,6.41
2018-01-15T04:36:31.302Z,6.52
2018-01-15T04:37:11.853Z,6.46
2018-01-15T04:37:52.378Z,6.37
2018-01-15T04:38:32.918Z,6.31
2018-01-15T04:39:13.445Z,6.28
2018-01-15T04:39:53.944Z,6.12
2018-01-15T04:40:34.484Z,6.17
2018-01-15T04:41:14.978Z,6.12
2018-01-15T04:41:55.519Z,6.06
2018-01-15T04:42:36.060Z,6.15
2018-01-15T04:43:16.582Z,6.15
2018-01-15T04:43:57.096Z,6.18
2018-01-15T04:44:37.620Z,6.22
2018-01-15T04:45:18.203Z,6.17
2018-01-15T04:45:58.665Z,6.14
2018-01-15T04:46:39.194Z,6.15
2018-01-15T04:47:19.735Z,6.15
2018-01-15T04:48:00.237Z,6.06
2018-01-15T04:48:40.789Z,6.08
2018-01-15T04:49:21.322Z,6.18
2018-01-15T04:50:01.837Z,6.15
2018-01-15T04:50:42.388Z,6.19
2018-01-15T04:51:22.905Z,6.25
2018-01-15T04:52:03.441Z,6.31
2018-01-15T04:52:43.962Z,6.27
2018-01-15T04:53:24.513Z,6.15
2018-01-15T04:54:05.057Z,6.18
2018-01-15T04:54:45.578Z,6.25
2018-01-15T04:55:26.116Z,6.27
2018-01-15T04:56:06.639Z,6.15
2018-01-15T04:56:47.196Z,6.14
2018-01-15T04:57:27.747Z,6.21
2018-01-15T04:58:08.298Z,6.17
2018-01-15T04:58:48.849Z,6.25
2018-01-15T04:59:29.405Z,6.21
2018-01-15T05:00:09.976Z,6.08
2018-01-15T05:00:50.504Z,6.19
2018-01-15T05:01:31.049Z,6.11
2018-01-15T05:02:11.563Z,6.11
2018-01-15T05:02:52.097Z,6.12
2018-01-15T05:03:32.609Z,6.08
2018-01-15T05:04:13.126Z,5.97
2018-01-15T05:04:53.697Z,5.97
2018-01-15T05:05:34.317Z,5.99
2018-01-15T05:06:14.780Z,5.99
2018-01-15T05:06:55.317Z,6.06
2018-01-15T05:07:35.859Z,6.09
2018-01-15T05:08:16.339Z,6.08
2018-01-15T05:08:56.847Z,6.11
2018-01-15T05:09:37.402Z,6.03
2018-01-15T05:10:17.919Z,5.97
2018-01-15T05:10:58.468Z,6.04
2018-01-15T05:11:38.959Z,5.99
2018-01-15T05:12:19.494Z,6.08
2018-01-15T05:13:00.053Z,5.99
2018-01-15T05:13:40.582Z,6.03
2018-01-15T05:14:21.097Z,6.11
2018-01-15T05:15:01.666Z,6.15
2018-01-15T05:15:42.237Z,6.12
2018-01-15T05:16:22.722Z,6.09
2018-01-15T05:17:03.284Z,6
2018-01-15T05:17:43.794Z,5.96
2018-01-15T05:18:24.347Z,5.94
2018-01-15T05:19:04.870Z,5.91
2018-01-15T05:19:45.441Z,6.01
2018-01-15T05:20:25.967Z,6.06
2018-01-15T05:21:06.494Z,6.11
2018-01-15T05:21:46.990Z,6.04
2018-01-15T05:22:27.532Z,6.09
2018-01-15T05:23:08.228Z,6.15
2018-01-15T05:23:48.799Z,6.09
2018-01-15T05:24:29.308Z,6.06
2018-01-15T05:25:09.810Z,5.82
2018-01-15T05:25:50.370Z,5.83
2018-01-15T05:26:30.867Z,5.89
2018-01-15T05:27:11.414Z,5.94
2018-01-15T05:27:51.949Z,5.99
2018-01-15T05:28:32.473Z,6
2018-01-15T05:29:12.971Z,6.01
2018-01-15T05:29:53.485Z,6
2018-01-15T05:30:34.043Z,5.99
2018-01-15T05:31:14.681Z,6.09
2018-01-15T05:31:55.131Z,6.08
2018-01-15T05:32:35.665Z,6.01
2018-01-15T05:33:16.189Z,5.91
2018-01-15T05:33:56.695Z,5.81
2018-01-15T05:34:37.253Z,5.72
2018-01-15T05:35:17.768Z,5.72
2018-01-15T05:35:58.320Z,5.82
2018-01-15T05:36:38.858Z,5.78
2018-01-15T05:37:19.397Z,5.76
2018-01-15T05:37:59.955Z,5.86
2018-01-15T05:38:40.509Z,5.82
2018-01-15T05:39:21.062Z,5.89
2018-01-15T05:40:01.574Z,5.91
2018-01-15T05:40:42.097Z,5.89
2018-01-15T05:41:22.629Z,5.83
2018-01-15T05:42:03.141Z,5.81
2018-01-15T05:42:43.691Z,5.82
2018-01-15T05:43:24.217Z,5.85
2018-01-15T05:44:04.752Z,5.85
2018-01-15T05:44:45.315Z,5.86
2018-01-15T05:45:25.938Z,5.79
2018-01-15T05:46:06.499Z,5.74
2018-01-15T05:46:46.954Z,5.79
2018-01-15T05:47:27.476Z,5.76
2018-01-15T16:08:40.127Z,9.97
2018-01-15T16:09:20.698Z,9.96
2018-01-15T16:10:01.234Z,9.9
2018-01-15T16:10:41.794Z,9.87
2018-01-15T16:11:22.395Z,9.86
2018-01-15T16:12:02.960Z,9.81
2018-01-15T16:12:43.557Z,9.9
2018-01-15T16:13:24.152Z,9.91
2018-01-15T16:14:04.857Z,9.83
2018-01-15T16:14:45.386Z,9.86
2018-01-15T16:15:25.899Z,9.97
2018-01-15T16:16:06.525Z,9.91
2018-01-15T16:16:46.986Z,9.89
2018-01-15T16:17:27.545Z,9.89
2018-01-15T16:18:08.045Z,9.87
2018-01-15T16:18:48.609Z,9.93
2018-01-15T16:19:29.692Z,9.93
2018-01-15T16:20:10.215Z,9.93
2018-01-15T16:20:50.757Z,9.9
2018-01-15T16:21:31.300Z,9.89
2018-01-15T16:22:11.860Z,9.89
2018-01-15T16:22:52.386Z,9.87
2018-01-15T16:23:32.874Z,9.94
2018-01-15T16:24:13.398Z,9.87
2018-01-15T16:24:53.931Z,9.83
2018-01-15T16:25:34.478Z,9.96
2018-01-15T16:26:15.032Z,9.89
2018-01-15T16:26:55.569Z,9.83
2018-01-15T16:27:36.089Z,9.86
2018-01-15T16:28:16.629Z,9.83
2018-01-15T16:28:57.204Z,9.89
2018-01-15T16:29:37.699Z,9.9
2018-01-15T16:30:18.200Z,9.89
2018-01-15T16:30:58.719Z,9.91
2018-01-15T16:31:39.235Z,9.93
2018-01-15T16:32:19.802Z,9.87
2018-01-15T16:33:00.361Z,9.99
2018-01-15T16:33:40.882Z,9.91
2018-01-15T16:34:21.454Z,9.86
2018-01-15T16:35:01.990Z,9.9
2018-01-15T16:35:42.535Z,9.89
2018-01-15T16:36:23.028Z,9.83
2018-01-15T16:37:03.602Z,9.87
2018-01-15T16:37:44.128Z,9.9
2018-01-15T16:38:24.698Z,9.89
2018-01-15T16:39:05.221Z,9.87
2018-01-15T16:39:45.790Z,9.83
2018-01-15T16:40:26.333Z,9.81
2018-01-15T16:41:07.055Z,9.9
2018-01-15T16:41:47.632Z,9.91
2018-01-15T16:42:28.077Z,9.86
2018-01-15T16:43:08.630Z,9.79
2018-01-15T16:43:49.155Z,9.94
2018-01-15T16:44:29.709Z,9.96
2018-01-15T16:45:10.245Z,9.91
2018-01-15T16:45:51.042Z,9.91
2018-01-15T16:46:31.605Z,9.9
2018-01-15T16:47:12.139Z,9.96
2018-01-15T16:47:52.667Z,10.02
2018-01-15T16:48:33.238Z,9.89
2018-01-15T16:49:14.607Z,9.86
2018-01-15T16:49:55.151Z,9.89
2018-01-15T16:50:35.801Z,9.94
2018-01-15T16:51:16.301Z,9.96
2018-01-15T16:51:56.857Z,9.84
2018-01-15T16:52:37.580Z,9.81
2018-01-15T16:53:18.129Z,9.93
2018-01-15T16:53:58.662Z,9.84
2018-01-15T16:54:39.239Z,9.89
2018-01-15T16:55:19.789Z,9.89
2018-01-15T16:56:00.404Z,9.91
2018-01-15T16:56:40.886Z,9.91
2018-01-15T16:57:21.426Z,9.94
2018-01-15T16:58:02.046Z,9.93
2018-01-15T16:58:42.506Z,9.91
2018-01-15T16:59:23.106Z,9.9
2018-01-15T17:00:03.623Z,9.89
2018-01-15T17:00:44.139Z,9.86
2018-01-15T17:01:24.697Z,9.87
2018-01-15T17:02:45.868Z,9.91
2018-01-15T17:03:26.448Z,9.93
2018-01-15T17:04:07.061Z,9.87
2018-01-15T17:04:47.637Z,9.87
2018-01-15T17:05:28.218Z,9.79
2018-01-15T17:06:08.795Z,9.79
2018-01-15T17:06:49.310Z,9.86
2018-01-15T17:07:29.895Z,9.84
2018-01-15T17:08:10.320Z,9.79
2018-01-15T17:08:50.825Z,9.83
2018-01-15T17:09:31.375Z,9.79
2018-01-15T17:10:11.954Z,9.81
2018-01-15T17:10:52.445Z,9.89
2018-01-15T17:11:33.015Z,9.9
2018-01-15T17:12:13.607Z,9.96
2018-01-15T17:12:54.185Z,9.96
2018-01-15T17:13:34.673Z,9.97
2018-01-15T17:14:15.238Z,9.93
2018-01-15T17:14:55.822Z,9.99
2018-01-15T17:15:36.434Z,9.97
2018-01-15T17:16:16.980Z,9.99
2018-01-15T17:16:57.484Z,9.9
2018-01-15T17:17:37.991Z,9.89
2018-01-15T17:18:18.519Z,9.93
2018-01-15T17:18:59.041Z,10.01
2018-01-15T17:19:39.635Z,9.94
2018-01-15T17:20:20.850Z,9.94
2018-01-15T17:21:00.685Z,9.99
2018-01-15T17:21:41.334Z,10.07
2018-01-15T17:22:21.790Z,9.96
2018-01-15T17:23:02.336Z,10.01
2018-01-15T17:23:42.872Z,9.97
2018-01-15T17:24:23.420Z,10.04
2018-01-15T17:25:03.933Z,9.97
2018-01-15T17:25:44.477Z,10.01
2018-01-15T17:26:25.011Z,9.99
2018-01-15T17:27:05.520Z,10.09
2018-01-15T17:27:46.081Z,10.08
2018-01-15T17:28:26.639Z,10.01
2018-01-15T17:29:07.195Z,10.04
2018-01-15T17:29:48.478Z,10.04
2018-01-15T17:30:29.062Z,10.07
2018-01-15T17:31:09.548Z,9.96
2018-01-15T17:31:50.173Z,10.02
2018-01-15T17:32:30.687Z,10.05
2018-01-15T17:33:11.242Z,10.05
2018-01-15T17:33:51.812Z,10.07
2018-01-15T17:34:32.406Z,10.08
2018-01-15T17:35:12.924Z,10.07
2018-01-15T17:35:53.466Z,10.11
2018-01-15T17:36:34.026Z,10.15
2018-01-15T17:37:14.555Z,10.11
2018-01-15T17:37:55.057Z,10.12
2018-01-15T17:38:35.593Z,10.02
2018-01-15T17:39:16.152Z,10.11
2018-01-15T17:39:56.682Z,10.04
2018-01-15T17:40:37.212Z,10.11
2018-01-15T17:41:17.715Z,10.11
2018-01-15T17:41:58.261Z,10.05
2018-01-15T17:42:38.789Z,10.08
2018-01-15T17:43:19.386Z,10.05
2018-01-15T17:43:59.896Z,10.04
2018-01-15T17:44:40.383Z,10.12
2018-01-15T17:45:20.961Z,10.15
2018-01-15T17:46:01.570Z,10.05
2018-01-15T17:46:42.039Z,10.12
2018-01-15T17:47:22.606Z,10.2
2018-01-15T17:48:03.172Z,10.02
2018-01-15T17:48:43.774Z,10.15
2018-01-15T17:49:24.284Z,10.08
2018-01-15T17:50:04.740Z,10.05
2018-01-15T17:50:45.355Z,10.01
2018-01-15T17:51:25.828Z,9.97
2018-01-15T17:52:06.420Z,9.94
2018-01-15T17:52:46.907Z,10.01
2018-01-15T17:53:27.414Z,10.02
2018-01-15T17:54:07.964Z,9.99
2018-01-15T17:54:48.523Z,10.02
2018-01-15T17:55:29.012Z,9.97
2018-01-15T17:56:09.573Z,9.99
2018-01-15T17:56:50.060Z,9.9
2018-01-15T17:57:30.627Z,9.99
2018-01-15T17:58:11.118Z,9.9
2018-01-15T17:58:51.630Z,9.94
2018-01-15T17:59:32.200Z,9.87
2018-01-15T18:00:12.758Z,9.91
2018-01-15T18:00:53.334Z,9.9
2018-01-15T18:01:33.839Z,9.9
2018-01-15T18:02:14.357Z,9.87
2018-01-15T18:02:54.914Z,9.97
2018-01-15T18:03:35.385Z,9.91
2018-01-15T18:04:16.023Z,9.81
2018-01-15T18:04:56.541Z,9.86
2018-01-15T18:05:37.049Z,9.87
2018-01-15T18:06:17.605Z,9.91
2018-01-15T18:06:58.210Z,9.9
2018-01-15T18:07:38.761Z,9.94
2018-01-15T18:08:19.307Z,9.99
2018-01-15T18:08:59.861Z,9.84
2018-01-15T18:09:40.522Z,9.83
2018-01-15T18:10:21.177Z,9.86
2018-01-15T18:11:01.878Z,9.81
2018-01-15T18:11:42.385Z,9.87
2018-01-15T18:12:22.851Z,9.84
2018-01-15T18:13:03.389Z,9.83
2018-01-15T18:13:44.041Z,9.75
2018-01-15T18:14:24.664Z,9.79
2018-01-15T18:15:05.120Z,9.74
2018-01-15T18:15:45.689Z,9.65
2018-01-15T18:16:26.217Z,9.75
2018-01-15T18:17:06.730Z,9.64
2018-01-15T18:17:47.307Z,9.68
2018-01-15T18:18:27.799Z,9.71
2018-01-15T18:19:08.346Z,9.71
2018-01-15T18:19:48.993Z,9.71
2018-01-15T18:20:29.469Z,9.72
2018-01-15T18:21:10.134Z,9.66
2018-01-15T18:21:50.723Z,9.54
2018-01-15T18:22:31.294Z,9.57
2018-01-15T18:23:11.776Z,9.61
2018-01-15T18:23:52.394Z,9.58
2018-01-15T18:24:32.909Z,9.66
2018-01-15T18:25:13.497Z,9.65
2018-01-15T18:25:54.099Z,9.72
2018-01-15T18:26:34.658Z,9.69
2018-01-15T18:27:15.158Z,9.57
2018-01-15T18:27:55.744Z,9.74
2018-01-15T18:28:36.393Z,9.66
2018-01-15T18:29:16.885Z,9.58
2018-01-15T18:29:57.494Z,9.64
2018-01-15T18:30:38.038Z,9.43
2018-01-15T18:31:18.576Z,9.51
2018-01-15T18:31:59.115Z,9.42
2018-01-15T18:32:39.962Z,9.51
2018-01-15T18:33:20.673Z,9.5
2018-01-15T18:34:01.114Z,9.39
2018-01-15T18:34:41.635Z,9.4
2018-01-15T18:35:22.288Z,9.36
2018-01-15T18:36:02.856Z,9.26
2018-01-15T18:36:43.361Z,9.35
2018-01-15T18:37:23.999Z,9.33
2018-01-15T18:39:17.791Z,9.26
2018-01-15T18:39:58.607Z,9.26
2018-01-15T18:40:39.132Z,9.26
2018-01-15T18:41:19.705Z,9.38
2018-01-15T18:42:00.231Z,9.33
2018-01-15T18:42:40.799Z,9.39
2018-01-15T18:43:21.618Z,9.39
2018-01-15T18:44:02.214Z,9.32
2018-01-15T18:44:42.880Z,9.32
2018-01-15T18:45:24.705Z,9.31
2018-01-15T18:46:05.400Z,9.23
2018-01-15T18:46:45.958Z,9.24
2018-01-15T18:47:26.535Z,9.36
2018-01-15T18:48:07.062Z,9.23
2018-01-15T18:48:47.646Z,9.31
2018-01-15T18:49:28.173Z,9.31
2018-01-15T18:50:08.871Z,9.26
2018-01-15T18:50:49.396Z,9.21
2018-01-15T18:51:30.021Z,9.29
2018-01-15T18:52:10.556Z,9.39
2018-01-15T18:52:51.119Z,9.43
2018-01-15T18:53:31.705Z,9.39
2018-01-15T18:54:12.553Z,9.35
2018-01-15T18:54:53.031Z,9.2
2018-01-15T18:55:33.634Z,9.28
2018-01-15T18:56:14.180Z,9.13
2018-01-15T18:56:54.743Z,9.14
2018-01-15T18:57:35.281Z,9.23
2018-01-15T18:58:16.027Z,9.11
2018-01-15T18:58:56.606Z,9.11
2018-01-15T18:59:37.199Z,9.11
2018-01-15T19:00:17.714Z,9.11
2018-01-15T19:00:58.259Z,9.29
2018-01-15T19:01:39.600Z,9.28
2018-01-15T19:02:20.859Z,9.14
2018-01-15T19:03:01.493Z,9.14
2018-01-15T19:03:42.149Z,9.21
2018-01-15T19:04:22.637Z,9.1
2018-01-15T19:05:03.201Z,9.11
2018-01-15T19:05:43.742Z,9.11
2018-01-15T19:06:24.390Z,9.15
2018-01-15T19:07:04.910Z,9.28
2018-01-15T19:07:45.467Z,9.29
2018-01-15T19:08:25.996Z,9.13
2018-01-15T19:09:06.544Z,9.23
2018-01-15T19:09:47.666Z,9.32
2018-01-15T19:10:28.013Z,9.21
2018-01-15T19:11:08.677Z,9.28
2018-01-15T19:11:49.226Z,9.28
2018-01-15T19:12:29.777Z,9.28
2018-01-15T19:13:10.367Z,9.31
2018-01-15T19:13:50.896Z,9.32
2018-01-15T19:14:31.446Z,9.32
2018-01-15T19:15:11.998Z,9.21
2018-01-15T19:15:52.531Z,9.28
2018-01-15T19:16:33.072Z,9.32
2018-01-15T19:17:13.625Z,9.14
2018-01-15T19:17:54.192Z,9.28
2018-01-15T19:18:34.731Z,9.29
2018-01-15T19:19:15.262Z,9.17
2018-01-15T19:19:55.817Z,9.14
2018-01-15T19:20:36.366Z,9.28
2018-01-15T19:21:16.932Z,9.2
2018-01-15T19:21:57.460Z,9.29
2018-01-15T19:22:38.050Z,9.28
2018-01-15T19:23:18.600Z,9.35
2018-01-15T19:23:59.158Z,9.28
2018-01-15T19:24:39.722Z,9.29